Littleton, CO (80122)

4:43 PM MDT on August 24, 2016 (GMT -0600)
Southglenn | | Change Station

Elev 5587 ft 39.58 °N, 104.95 °W | Updated 4 minutes ago

Light Rain
Light Rain
64.8 °F
Feels Like 64.8 °F
N
0.0
Wind Variable Wind from ESE

Today
High -- | Low -- °F
--% Chance of Precip.
Yesterday
High -- | Low -- °F
Precip. -- in
Pressure 30.13 in
Visibility 10.0 miles
Clouds Few 2000 ft
Mostly Cloudy 7000 ft
Overcast 14000 ft
Dew Point 51 °F
Humidity 60%
Rainfall 0.07 in
Snow Depth Not available.
6:21 AM 7:42 PM
Waning Gibbous, 52% visible
METAR KAPA 242153Z 17008KT 10SM -RA FEW020 BKN070 OVC140 15/11 A3027 RMK AO2 SLP202 P0000 T01500106
Pressure 30.13 in
Visibility 10.0 miles
Clouds Few 2000 ft
Mostly Cloudy 7000 ft
Overcast 14000 ft
Dew Point 51 °F
Humidity 60%
Rainfall 0.07 in
Snow Depth Not available.
6:21 AM 7:42 PM
Waning Gibbous, 52% visible
METAR KAPA 242153Z 17008KT 10SM -RA FEW020 BKN070 OVC140 15/11 A3027 RMK AO2 SLP202 P0000 T01500106

10-Day Weather Forecast

Almanac

Astronomy

Aug. 24, 2016 Rise Set
Actual Time
Civil Twilight
Nautical Twilight
Astronomical Twilight
Moon
Length of Visible Light
Length of Day
Tomorrow will be .
, % of the Moon is Illuminated

Today's Extremes

State Highs State Lows

Community

WunderPhotos

Upload Photos

1,934,728 photos uploaded!

WunderBlog® & News

Nearby

Air Quality

  Air Quality AQ Index Pollutant
Not available.

Snow Depth

Station Depth Elevation

Earthquake Activity

City Distance Mag. Time & Date
Minimum magnitude displayed is 2.5.

Coastal Water Temperatures

Place Temperature

Stations

Nearby Weather Stations

Station Location Temp. Windchill Dew Point Humidity Wind Precip. Elev Updated Type
                   

Watches & Warnings

There are currently no watches in effect.